createdAt,value
2023-05-21T00:00:46.398Z,100633.03
2023-05-21T00:01:51.458Z,100630.88
2023-05-21T00:02:59.633Z,100630.63
2023-05-21T00:04:05.347Z,100635.03
2023-05-21T00:05:15.899Z,100632.84
2023-05-21T00:06:22.601Z,100645.22
2023-05-21T00:07:28.963Z,100644.94
2023-05-21T00:08:35.430Z,100641.13
2023-05-21T00:09:41.812Z,100643.38
2023-05-21T00:10:46.900Z,100648.56
2023-05-21T00:11:53.220Z,100647.22
2023-05-21T00:12:58.219Z,100639.59
2023-05-21T00:14:04.591Z,100639.59
2023-05-21T00:15:10.555Z,100641.00
2023-05-21T00:16:17.005Z,100641.56
2023-05-21T00:17:22.118Z,100643.22
2023-05-21T00:18:28.366Z,100651.19
2023-05-21T00:19:34.145Z,100656.16
2023-05-21T00:20:42.990Z,100652.38
2023-05-21T00:21:49.725Z,100656.75
2023-05-21T00:22:56.157Z,100654.31
2023-05-21T00:24:01.243Z,100654.91
2023-05-21T00:25:08.185Z,100652.72
2023-05-21T00:26:13.335Z,100657.94
2023-05-21T00:27:19.820Z,100660.19
2023-05-21T00:28:26.171Z,100663.47
2023-05-21T00:29:31.453Z,100664.06
2023-05-21T00:30:37.763Z,100672.00
2023-05-21T00:31:42.939Z,100672.56
2023-05-21T00:32:49.428Z,100672.31
2023-05-21T00:33:54.528Z,100670.44
2023-05-21T00:35:01.162Z,100678.94
2023-05-21T00:36:07.444Z,100673.47
2023-05-21T00:37:16.902Z,100669.41
2023-05-21T00:38:21.947Z,100671.06
2023-05-21T00:39:28.525Z,100668.03
2023-05-21T00:40:34.022Z,100675.75
2023-05-21T00:41:41.427Z,100678.25
2023-05-21T00:42:51.992Z,100678.78
2023-05-21T00:43:58.544Z,100685.09
2023-05-21T00:45:06.826Z,100666.75
2023-05-21T00:46:15.049Z,100676.06
2023-05-21T00:47:20.184Z,100680.44
2023-05-21T00:48:27.413Z,100685.69
2023-05-21T00:49:34.607Z,100681.84
2023-05-21T00:50:42.376Z,100679.69
2023-05-21T00:51:47.446Z,100690.13
2023-05-21T00:52:55.705Z,100686.88
2023-05-21T00:54:00.904Z,100691.00
2023-05-21T00:55:07.859Z,100688.59
2023-05-21T00:56:13.026Z,100691.94
2023-05-21T00:57:21.939Z,100685.91
2023-05-21T00:58:27.746Z,100691.13
2023-05-21T00:59:35.392Z,100691.72
2023-05-21T01:00:41.954Z,100692.53
2023-05-21T01:01:56.876Z,100693.09
2023-05-21T01:03:02.096Z,100690.13
2023-05-21T01:04:08.988Z,100694.25
2023-05-21T01:05:14.430Z,100690.13
2023-05-21T01:06:23.560Z,100692.06
2023-05-21T01:07:28.625Z,100698.13
2023-05-21T01:08:37.617Z,100691.56
2023-05-21T01:09:42.803Z,100689.38
2023-05-21T01:10:49.176Z,100689.97
2023-05-21T01:11:54.668Z,100693.25
2023-05-21T01:13:02.155Z,100691.06
2023-05-21T01:14:09.289Z,100687.81
2023-05-21T01:15:16.138Z,100692.75
2023-05-21T01:16:21.255Z,100687.88
2023-05-21T01:17:27.765Z,100693.09
2023-05-21T01:18:36.419Z,100695.81
2023-05-21T01:20:49.503Z,100690.59
2023-05-21T01:22:00.007Z,100691.16
2023-05-21T01:23:06.715Z,100700.78
2023-05-21T01:24:13.107Z,100693.94
2023-05-21T01:25:19.678Z,100696.75
2023-05-21T01:26:28.896Z,100696.47
2023-05-21T01:27:34.960Z,100695.97
2023-05-21T01:28:39.940Z,100697.06
2023-05-21T01:29:46.298Z,100695.75
2023-05-21T01:30:51.532Z,100700.72
2023-05-21T01:32:06.996Z,100698.28
2023-05-21T01:33:17.747Z,100703.50
2023-05-21T01:34:27.515Z,100709.56
2023-05-21T01:35:35.987Z,100696.41
2023-05-21T01:36:44.788Z,100696.97
2023-05-21T01:37:56.587Z,100695.34
2023-05-21T01:39:08.356Z,100704.13
2023-05-21T01:40:16.126Z,100701.97
2023-05-21T01:41:22.880Z,100705.25
2023-05-21T01:42:28.440Z,100706.41
2023-05-21T01:43:37.660Z,100710.53
2023-05-21T01:44:43.025Z,100710.00
2023-05-21T01:45:49.937Z,100710.00
2023-05-21T01:46:55.741Z,100719.88
2023-05-21T01:48:02.322Z,100715.22
2023-05-21T01:49:08.439Z,100721.25
2023-05-21T01:50:15.474Z,100716.09
2023-05-21T01:51:20.636Z,100715.56
2023-05-21T01:52:27.056Z,100718.59
2023-05-21T01:53:32.089Z,100724.66
2023-05-21T01:54:40.126Z,100721.91
2023-05-21T01:55:45.168Z,100726.84
2023-05-21T01:56:51.908Z,100740.09
2023-05-21T01:57:57.878Z,100727.47
2023-05-21T01:59:05.538Z,100729.69
2023-05-21T02:00:12.281Z,100735.19
2023-05-21T02:01:18.828Z,100729.69
2023-05-21T02:02:23.956Z,100734.38
2023-05-21T02:03:32.306Z,100730.53
2023-05-21T02:04:37.611Z,100728.88
2023-05-21T02:05:44.019Z,100742.34
2023-05-21T02:06:49.146Z,100735.47
2023-05-21T02:07:57.417Z,100737.69
2023-05-21T02:09:02.559Z,100731.38
2023-05-21T02:10:11.922Z,100726.44
2023-05-21T02:11:16.963Z,100732.22
2023-05-21T02:12:23.480Z,100739.09
2023-05-21T02:13:30.671Z,100742.66
2023-05-21T02:14:37.114Z,100745.16
2023-05-21T02:15:42.118Z,100745.72
2023-05-21T02:16:48.509Z,100747.38
2023-05-21T02:17:54.410Z,100748.47
2023-05-21T02:19:02.044Z,100752.84
2023-05-21T02:20:12.839Z,100749.84
2023-05-21T02:21:19.308Z,100749.59
2023-05-21T02:22:24.470Z,100748.50
2023-05-21T02:23:30.778Z,100748.22
2023-05-21T02:24:35.954Z,100743.03
2023-05-21T02:25:44.061Z,100753.75
2023-05-21T02:26:51.139Z,100755.38
2023-05-21T02:27:58.075Z,100759.78
2023-05-21T02:29:03.359Z,100757.63
2023-05-21T02:30:11.311Z,100753.78
2023-05-21T02:31:16.349Z,100761.72
2023-05-21T02:32:22.732Z,100759.81
2023-05-21T02:33:27.957Z,100764.78
2023-05-21T02:34:34.364Z,100768.66
2023-05-21T02:35:39.500Z,100765.94
2023-05-21T02:36:45.919Z,100774.47
2023-05-21T02:37:50.962Z,100773.97
2023-05-21T02:38:59.069Z,100760.75
2023-05-21T02:40:05.492Z,100772.31
2023-05-21T02:41:16.825Z,100773.69
2023-05-21T02:42:21.869Z,100779.44
2023-05-21T02:43:28.232Z,100763.53
2023-05-21T02:44:33.250Z,100772.06
2023-05-21T02:45:39.884Z,100773.97
2023-05-21T02:46:45.071Z,100769.06
2023-05-21T02:47:51.621Z,100773.44
2023-05-21T02:48:56.691Z,100772.34
2023-05-21T02:50:04.166Z,100775.09
2023-05-21T02:51:09.258Z,100770.13
2023-05-21T02:52:15.760Z,100773.19
2023-05-21T02:53:20.880Z,100777.06
2023-05-21T02:54:27.276Z,100774.56
2023-05-21T02:55:32.433Z,100778.44
2023-05-21T02:56:40.471Z,100774.34
2023-05-21T02:57:45.467Z,100784.50
2023-05-21T02:58:53.276Z,100783.16
2023-05-21T03:00:00.171Z,100778.19
2023-05-21T03:01:06.578Z,100777.91
2023-05-21T03:02:11.737Z,100774.66
2023-05-21T03:03:18.275Z,100776.03
2023-05-21T03:04:23.665Z,100793.66
2023-05-21T03:05:30.161Z,100785.13
2023-05-21T03:06:36.140Z,100783.78
2023-05-21T03:07:43.328Z,100789.00
2023-05-21T03:08:48.413Z,100784.88
2023-05-21T03:09:54.920Z,100784.59
2023-05-21T03:10:59.946Z,100783.50
2023-05-21T03:12:08.442Z,100793.94
2023-05-21T03:13:14.885Z,100792.03
2023-05-21T03:14:20.037Z,100786.53
2023-05-21T03:15:26.479Z,100790.13
2023-05-21T03:16:35.741Z,100790.38
2023-05-21T03:17:43.665Z,100792.59
2023-05-21T03:18:55.939Z,100784.06
2023-05-21T03:20:07.212Z,100789.03
2023-05-21T03:21:14.524Z,100790.94
2023-05-21T03:22:21.401Z,100789.28
2023-05-21T03:23:28.322Z,100789.59
2023-05-21T03:24:34.393Z,100797.28
2023-05-21T03:25:40.682Z,100792.88
2023-05-21T03:26:45.734Z,100786.84
2023-05-21T03:27:53.795Z,100787.91
2023-05-21T03:28:59.245Z,100786.56
2023-05-21T03:30:06.727Z,100788.47
2023-05-21T03:31:13.421Z,100788.47
2023-05-21T03:32:18.428Z,100783.81
2023-05-21T03:33:25.411Z,100784.63
2023-05-21T03:34:30.643Z,100786.88
2023-05-21T03:35:37.241Z,100782.72
2023-05-21T03:36:43.891Z,100777.50
2023-05-21T03:37:48.944Z,100773.66
2023-05-21T03:38:55.412Z,100772.53
2023-05-21T03:40:00.466Z,100772.25
2023-05-21T03:41:06.991Z,100768.44
2023-05-21T03:42:12.134Z,100771.44
2023-05-21T03:43:20.265Z,100780.22
2023-05-21T03:44:25.337Z,100785.47
2023-05-21T03:45:31.751Z,100775.84
2023-05-21T03:46:36.973Z,100775.28
2023-05-21T03:47:44.339Z,100780.22
2023-05-21T03:48:49.492Z,100771.44
2023-05-21T03:49:56.022Z,100778.59
2023-05-21T03:51:01.255Z,100778.59
2023-05-21T03:52:08.095Z,100781.88
2023-05-21T03:53:13.818Z,100766.75
2023-05-21T03:54:20.152Z,100763.69
2023-05-21T03:55:25.377Z,100762.59
2023-05-21T03:56:31.687Z,100767.56
2023-05-21T03:57:36.794Z,100762.59
2023-05-21T03:58:45.564Z,100763.13
2023-05-21T03:59:50.712Z,100762.88
2023-05-21T04:00:57.146Z,100768.09
2023-05-21T04:02:02.220Z,100762.28
2023-05-21T04:03:08.720Z,100757.59
2023-05-21T04:04:14.049Z,100749.09
2023-05-21T04:05:20.578Z,100747.69
2023-05-21T04:06:25.723Z,100741.88
2023-05-21T04:07:32.583Z,100744.66
2023-05-21T04:08:38.076Z,100741.63
2023-05-21T04:09:44.877Z,100742.19
2023-05-21T04:10:50.001Z,100736.41
2023-05-21T04:12:00.352Z,100737.22
2023-05-21T04:13:05.568Z,100727.03
2023-05-21T04:14:14.102Z,100732.00
2023-05-21T04:15:19.957Z,100736.09
2023-05-21T04:16:26.470Z,100739.41
2023-05-21T04:17:31.682Z,100730.56
2023-05-21T04:18:38.024Z,100731.13
2023-05-21T04:19:43.356Z,100728.91
2023-05-21T04:20:51.286Z,100731.13
2023-05-21T04:21:56.358Z,100721.44
2023-05-21T04:23:02.891Z,100718.41
2023-05-21T04:24:08.092Z,100718.97
2023-05-21T04:25:14.576Z,100712.06
2023-05-21T04:26:19.641Z,100706.00
2023-05-21T04:27:26.704Z,100708.44
2023-05-21T04:28:31.813Z,100707.03
2023-05-21T04:29:44.030Z,100700.41
2023-05-21T04:30:49.582Z,100697.66
2023-05-21T04:31:56.006Z,100700.69
2023-05-21T04:33:01.520Z,100705.09
2023-05-21T04:34:08.076Z,100697.63
2023-05-21T04:35:13.497Z,100694.63
2023-05-21T04:36:20.299Z,100692.41
2023-05-21T04:37:26.106Z,100685.22
2023-05-21T04:38:32.646Z,100687.72
2023-05-21T04:39:37.748Z,100689.88
2023-05-21T04:40:44.937Z,100683.00
2023-05-21T04:41:52.140Z,100676.34
2023-05-21T04:42:58.497Z,100681.31
2023-05-21T04:44:03.575Z,100684.06
2023-05-21T04:45:12.924Z,100686.53
2023-05-21T04:46:17.966Z,100684.31
2023-05-21T04:47:24.425Z,100688.44
2023-05-21T04:48:30.119Z,100689.25
2023-05-21T04:49:37.138Z,100684.88
2023-05-21T04:50:42.856Z,100674.66
2023-05-21T04:51:50.638Z,100680.16
2023-05-21T04:52:56.112Z,100668.84
2023-05-21T04:54:02.427Z,100670.47
2023-05-21T04:55:08.287Z,100669.94
2023-05-21T04:56:14.883Z,100669.03
2023-05-21T04:57:20.105Z,100671.25
2023-05-21T04:58:27.682Z,100658.28
2023-05-21T04:59:34.236Z,100664.31
2023-05-21T05:00:41.642Z,100659.06
2023-05-21T05:01:48.081Z,100653.78
2023-05-21T05:02:53.107Z,100657.59
2023-05-21T05:03:59.662Z,100651.81
2023-05-21T05:05:04.860Z,100648.16
2023-05-21T05:06:11.509Z,100649.84
2023-05-21T05:07:16.950Z,100643.75
2023-05-21T05:08:23.411Z,100645.94
2023-05-21T05:09:28.527Z,100646.16
2023-05-21T05:10:34.888Z,100649.47
2023-05-21T05:11:39.896Z,100646.13
2023-05-21T05:12:46.389Z,100645.56
2023-05-21T05:13:51.472Z,100641.69
2023-05-21T05:14:57.845Z,100648.84
2023-05-21T05:16:04.761Z,100643.03
2023-05-21T05:17:12.012Z,100642.75
2023-05-21T05:18:17.934Z,100638.56
2023-05-21T05:19:24.365Z,100633.56
2023-05-21T05:20:29.519Z,100632.19
2023-05-21T05:21:35.971Z,100633.25
2023-05-21T05:22:42.319Z,100635.13
2023-05-21T05:23:47.404Z,100630.16
2023-05-21T05:24:53.845Z,100623.19
2023-05-21T05:25:58.994Z,100633.66
2023-05-21T05:27:05.398Z,100637.78
2023-05-21T05:28:10.373Z,100625.34
2023-05-21T05:29:16.792Z,100622.00
2023-05-21T05:30:22.152Z,100621.69
2023-05-21T05:31:30.305Z,100617.53
2023-05-21T05:32:35.580Z,100616.41
2023-05-21T05:33:42.458Z,100609.78
2023-05-21T05:34:48.616Z,100614.72
2023-05-21T05:35:54.892Z,100605.00
2023-05-21T05:37:01.372Z,100598.38
2023-05-21T05:38:06.522Z,100599.72
2023-05-21T05:39:13.154Z,100595.84
2023-05-21T05:40:18.400Z,100597.19
2023-05-21T05:41:24.840Z,100587.50
2023-05-21T05:42:30.086Z,100584.44
2023-05-21T05:43:36.416Z,100594.91
2023-05-21T05:44:41.439Z,100592.66
2023-05-21T05:45:47.852Z,100593.16
2023-05-21T05:46:54.599Z,100587.66
2023-05-21T05:48:01.049Z,100594.53
2023-05-21T05:49:06.173Z,100588.72
2023-05-21T05:50:13.083Z,100588.72
2023-05-21T05:51:19.661Z,100591.41
2023-05-21T05:52:24.774Z,100587.75
2023-05-21T05:53:31.215Z,100591.84
2023-05-21T05:54:36.417Z,100584.13
2023-05-21T05:55:42.897Z,100584.94
2023-05-21T05:56:47.993Z,100573.28
2023-05-21T05:57:54.378Z,100575.47
2023-05-21T05:59:01.319Z,100577.63
2023-05-21T06:00:08.425Z,100572.63
2023-05-21T06:01:14.819Z,100577.53
2023-05-21T06:02:21.507Z,100568.13
2023-05-21T06:03:28.004Z,100568.66
2023-05-21T06:04:33.184Z,100568.34
2023-05-21T06:05:39.932Z,100564.16
2023-05-21T06:06:45.216Z,100560.81
2023-05-21T06:07:51.554Z,100571.78
2023-05-21T06:08:57.804Z,100553.78
2023-05-21T06:10:02.830Z,100552.38
2023-05-21T06:11:09.234Z,100545.69
2023-05-21T06:12:17.314Z,100540.69
2023-05-21T06:13:23.726Z,100545.09
2023-05-21T06:14:28.793Z,100549.50
2023-05-21T06:15:35.380Z,100537.00
2023-05-21T06:16:40.842Z,100541.13
2023-05-21T06:17:48.885Z,100536.13
2023-05-21T06:18:53.994Z,100535.53
2023-05-21T06:20:00.839Z,100531.34
2023-05-21T06:21:05.974Z,100535.16
2023-05-21T06:22:12.381Z,100537.63
2023-05-21T06:23:17.533Z,100532.59
2023-05-21T06:24:24.245Z,100529.50
2023-05-21T06:25:29.340Z,100529.22
2023-05-21T06:26:35.703Z,100526.47
2023-05-21T06:27:40.798Z,100531.38
2023-05-21T06:28:47.200Z,100517.44
2023-05-21T06:29:52.651Z,100517.69
2023-05-21T06:30:59.065Z,100515.09
2023-05-21T06:32:04.189Z,100515.31
2023-05-21T06:33:12.782Z,100511.66
2023-05-21T06:34:19.450Z,100508.25
2023-05-21T06:35:25.774Z,100509.06
2023-05-21T06:36:33.648Z,100500.47
2023-05-21T06:37:40.061Z,100496.59
2023-05-21T06:38:45.243Z,100490.41
2023-05-21T06:39:51.811Z,100488.19
2023-05-21T06:40:59.722Z,100487.91
2023-05-21T06:42:06.100Z,100495.59
2023-05-21T06:43:11.177Z,100485.84
2023-05-21T06:44:17.762Z,100482.47
2023-05-21T06:45:23.101Z,100482.97
2023-05-21T06:46:29.713Z,100481.84
2023-05-21T06:47:34.837Z,100477.13
2023-05-21T06:48:42.851Z,100477.94
2023-05-21T06:49:49.179Z,100472.41
2023-05-21T06:50:54.276Z,100473.22
2023-05-21T06:52:00.629Z,100478.16
2023-05-21T06:53:05.724Z,100478.97
2023-05-21T06:54:14.231Z,100467.28
2023-05-21T06:55:19.324Z,100473.00
2023-05-21T06:56:25.780Z,100469.31
2023-05-21T06:57:30.729Z,100469.22
2023-05-21T06:58:37.511Z,100475.78
2023-05-21T06:59:43.811Z,100466.03
2023-05-21T07:00:48.944Z,100462.13
2023-05-21T07:01:55.463Z,100464.56
2023-05-21T07:03:00.630Z,100463.16
2023-05-21T07:04:08.893Z,100462.00
2023-05-21T07:05:13.977Z,100453.41
2023-05-21T07:06:20.376Z,100453.94
2023-05-21T07:07:26.842Z,100451.66
2023-05-21T07:08:31.889Z,100448.28
2023-05-21T07:09:38.206Z,100449.59
2023-05-21T07:10:43.664Z,100450.09
2023-05-21T07:11:50.112Z,100442.00
2023-05-21T07:12:55.275Z,100441.34
2023-05-21T07:14:03.319Z,100441.06
2023-05-21T07:15:09.341Z,100437.66
2023-05-21T07:16:15.833Z,100437.84
2023-05-21T07:17:22.200Z,100430.03
2023-05-21T07:18:27.414Z,100423.88
2023-05-21T07:19:35.558Z,100421.28
2023-05-21T07:20:40.730Z,100424.25
2023-05-21T07:21:47.162Z,100415.94
2023-05-21T07:22:52.154Z,100423.31
2023-05-21T07:23:58.722Z,100419.06
2023-05-21T07:25:03.889Z,100412.38
2023-05-21T07:26:10.308Z,100415.06
2023-05-21T07:27:25.477Z,100414.78
2023-05-21T07:28:41.861Z,100407.75
2023-05-21T07:29:46.911Z,100407.16
2023-05-21T07:30:53.326Z,100406.00
2023-05-21T07:31:59.863Z,100405.69
2023-05-21T07:33:04.972Z,100399.50
2023-05-21T07:34:11.487Z,100401.97
2023-05-21T07:35:18.310Z,100398.03
2023-05-21T07:36:24.767Z,100389.41
2023-05-21T07:37:30.037Z,100391.88
2023-05-21T07:38:36.806Z,100376.56
2023-05-21T07:39:41.826Z,100375.41
2023-05-21T07:40:48.312Z,100368.72
2023-05-21T07:41:53.458Z,100371.69
2023-05-21T07:42:59.887Z,100367.44
2023-05-21T07:44:05.040Z,100361.28
2023-05-21T07:45:12.308Z,100355.41
2023-05-21T07:46:18.785Z,100358.69
2023-05-21T07:47:24.906Z,100345.94
2023-05-21T07:48:32.128Z,100349.84
2023-05-21T07:49:38.664Z,100349.03
2023-05-21T07:50:46.666Z,100351.00
2023-05-21T07:51:52.091Z,100339.28
2023-05-21T07:52:58.507Z,100336.19
2023-05-21T07:54:03.528Z,100342.22
2023-05-21T07:55:11.320Z,100335.72
2023-05-21T07:56:17.644Z,100335.94
2023-05-21T07:57:25.035Z,100341.28
2023-05-21T07:58:32.440Z,100329.91
2023-05-21T07:59:38.909Z,100331.53
2023-05-21T08:00:46.279Z,100333.16
2023-05-21T08:01:52.723Z,100326.97
2023-05-21T08:02:58.618Z,100321.91
2023-05-21T08:04:07.108Z,100324.38
2023-05-21T08:05:12.645Z,100327.66
2023-05-21T08:06:20.714Z,100315.06
2023-05-21T08:07:25.867Z,100311.34
2023-05-21T08:08:32.294Z,100311.50
2023-05-21T08:09:38.682Z,100310.84
2023-05-21T08:10:43.841Z,100308.56
2023-05-21T08:11:50.247Z,100301.22
2023-05-21T08:12:55.374Z,100301.72
2023-05-21T08:14:01.828Z,100301.91
2023-05-21T08:15:07.687Z,100302.91
2023-05-21T08:16:14.292Z,100299.00
2023-05-21T08:17:19.368Z,100293.91
2023-05-21T08:18:26.760Z,100295.25
2023-05-21T08:19:31.828Z,100300.94
2023-05-21T08:20:38.345Z,100294.94
2023-05-21T08:21:45.080Z,100293.91
2023-05-21T08:22:51.457Z,100287.38
2023-05-21T08:23:58.475Z,100291.50
2023-05-21T08:25:05.164Z,100288.03
2023-05-21T08:26:10.295Z,100287.06
2023-05-21T08:27:17.443Z,100285.28
2023-05-21T08:28:23.844Z,100289.03
2023-05-21T08:29:30.169Z,100285.28
2023-05-21T08:30:35.457Z,100286.72
2023-05-21T08:31:42.908Z,100292.47
2023-05-21T08:32:48.030Z,100283.16
2023-05-21T08:33:57.838Z,100287.69
2023-05-21T08:35:02.905Z,100290.97
2023-05-21T08:36:10.060Z,100288.31
2023-05-21T08:37:16.834Z,100291.91
2023-05-21T08:38:23.291Z,100286.34
2023-05-21T08:39:28.310Z,100281.31
2023-05-21T08:40:34.724Z,100286.19
2023-05-21T08:41:40.868Z,100287.97
2023-05-21T08:42:49.460Z,100289.81
2023-05-21T08:43:59.378Z,100282.09
2023-05-21T08:45:10.888Z,100284.69
2023-05-21T08:46:16.298Z,100285.69
2023-05-21T08:47:27.136Z,100283.03
2023-05-21T08:48:35.062Z,100285.47
2023-05-21T08:49:41.541Z,100281.69
2023-05-21T08:50:47.054Z,100282.31
2023-05-21T08:51:53.665Z,100273.78
2023-05-21T08:53:00.661Z,100271.63
2023-05-21T08:54:11.213Z,100267.09
2023-05-21T08:55:18.217Z,100263.44
2023-05-21T08:56:24.228Z,100264.84
2023-05-21T08:57:31.230Z,100259.59
2023-05-21T08:58:37.070Z,100266.09
2023-05-21T08:59:45.598Z,100264.28
2023-05-21T09:00:50.807Z,100255.38
2023-05-21T09:01:58.840Z,100262.06
2023-05-21T09:03:08.776Z,100259.09
2023-05-21T09:04:21.368Z,100264.09
2023-05-21T09:05:30.259Z,100261.28
2023-05-21T09:06:35.324Z,100259.56
2023-05-21T09:07:46.838Z,100256.09
2023-05-21T09:09:00.134Z,100255.09
2023-05-21T09:10:09.640Z,100254.41
2023-05-21T09:11:14.861Z,100250.13
2023-05-21T09:12:21.538Z,100247.03
2023-05-21T09:13:29.558Z,100253.53
2023-05-21T09:14:36.051Z,100250.88
2023-05-21T09:15:43.291Z,100249.50
2023-05-21T09:16:50.136Z,100248.94
2023-05-21T09:17:57.033Z,100246.28
2023-05-21T09:19:04.359Z,100251.28
2023-05-21T09:20:13.938Z,100244.03
2023-05-21T09:21:29.941Z,100240.22
2023-05-21T09:22:35.209Z,100236.41
2023-05-21T09:23:41.583Z,100233.03
2023-05-21T09:24:49.282Z,100239.78
2023-05-21T09:25:55.642Z,100240.69
2023-05-21T09:27:01.190Z,100238.44
2023-05-21T09:28:07.831Z,100238.53
2023-05-21T09:29:13.149Z,100235.16
2023-05-21T09:30:25.244Z,100241.28
2023-05-21T09:31:34.211Z,100242.66
2023-05-21T09:32:39.446Z,100243.94
2023-05-21T09:33:50.793Z,100245.69
2023-05-21T09:34:55.876Z,100238.75
2023-05-21T09:36:02.230Z,100236.56
2023-05-21T09:37:19.940Z,100235.16
2023-05-21T09:38:33.471Z,100233.53
2023-05-21T09:39:38.571Z,100230.94
2023-05-21T09:40:50.005Z,100236.38
2023-05-21T09:41:55.190Z,100240.34
2023-05-21T09:43:01.543Z,100234.09
2023-05-21T09:44:07.105Z,100236.38
2023-05-21T09:45:13.814Z,100244.03
2023-05-21T09:46:28.239Z,100246.53
2023-05-21T09:47:34.482Z,100240.88
2023-05-21T09:48:41.734Z,100246.81
2023-05-21T09:49:47.962Z,100246.50
2023-05-21T09:50:52.474Z,100245.19
2023-05-21T09:52:01.563Z,100234.75
2023-05-21T09:53:14.548Z,100244.69
2023-05-21T09:54:20.415Z,100248.94
2023-05-21T09:55:27.431Z,100244.56
2023-05-21T09:56:33.575Z,100251.13
2023-05-21T09:57:45.140Z,100248.19
2023-05-21T09:58:49.797Z,100247.06
2023-05-21T09:59:55.603Z,100256.38
2023-05-21T10:01:01.338Z,100248.50
2023-05-21T10:02:07.952Z,100250.28
2023-05-21T10:03:16.357Z,100253.69
2023-05-21T10:04:21.293Z,100260.38
2023-05-21T10:05:30.822Z,100255.41
2023-05-21T10:06:38.261Z,100258.47
2023-05-21T10:07:45.629Z,100260.91
2023-05-21T10:09:09.882Z,100261.72
2023-05-21T10:10:17.796Z,100255.34
2023-05-21T10:11:25.389Z,100258.28
2023-05-21T10:12:34.299Z,100258.22
2023-05-21T10:13:39.339Z,100253.91
2023-05-21T10:14:46.325Z,100258.47
2023-05-21T10:15:55.157Z,100259.44
2023-05-21T10:17:01.159Z,100267.69
2023-05-21T10:18:06.198Z,100273.81
2023-05-21T10:19:13.199Z,100278.19
2023-05-21T10:20:20.165Z,100288.66
2023-05-21T10:21:26.931Z,100284.19
2023-05-21T10:22:31.777Z,100286.59
2023-05-21T10:23:38.811Z,100292.38
2023-05-21T10:24:44.118Z,100295.78
2023-05-21T10:25:50.056Z,100290.97
2023-05-21T10:26:55.182Z,100292.22
2023-05-21T10:28:02.667Z,100291.16
2023-05-21T10:29:07.290Z,100290.66
2023-05-21T10:30:13.857Z,100292.94
2023-05-21T10:31:18.493Z,100290.59
2023-05-21T10:32:25.323Z,100284.88
2023-05-21T10:33:30.290Z,100292.47
2023-05-21T10:34:36.258Z,100288.34
2023-05-21T10:35:40.969Z,100289.31
2023-05-21T10:36:47.506Z,100292.34
2023-05-21T10:37:55.968Z,100294.94
2023-05-21T10:39:02.315Z,100291.97
2023-05-21T10:40:07.749Z,100290.94
2023-05-21T10:41:14.692Z,100293.53
2023-05-21T10:42:41.604Z,100293.28
2023-05-21T10:43:59.020Z,100290.44
2023-05-21T10:45:15.154Z,100297.91
2023-05-21T10:46:31.061Z,100291.03
2023-05-21T10:48:07.787Z,100307.63
2023-05-21T10:49:36.738Z,100299.25
2023-05-21T10:50:56.915Z,100303.41
2023-05-21T10:52:09.592Z,100305.69
2023-05-21T10:53:23.152Z,100306.59
2023-05-21T10:54:57.360Z,100314.38
2023-05-21T10:56:11.832Z,100314.66
2023-05-21T10:57:52.925Z,100328.47
2023-05-21T10:59:19.367Z,100328.59
2023-05-21T11:00:24.047Z,100327.34
2023-05-21T11:01:36.340Z,100335.69
2023-05-21T11:02:41.032Z,100342.97
2023-05-21T11:03:46.975Z,100344.19
2023-05-21T11:05:01.643Z,100348.44
2023-05-21T11:06:07.366Z,100355.50
2023-05-21T11:07:13.504Z,100356.69
2023-05-21T11:08:27.887Z,100369.47
2023-05-21T11:09:33.752Z,100372.00
2023-05-21T11:10:41.826Z,100377.00
2023-05-21T11:11:49.379Z,100378.72
2023-05-21T11:13:14.781Z,100384.84
2023-05-21T11:14:38.327Z,100391.47
2023-05-21T11:16:08.821Z,100397.00
2023-05-21T11:17:16.172Z,100395.63
2023-05-21T11:18:20.817Z,100405.03
2023-05-21T11:19:37.555Z,100403.72
2023-05-21T11:20:43.701Z,100409.81
2023-05-21T11:21:53.331Z,100414.28
2023-05-21T11:23:01.840Z,100415.72
2023-05-21T11:24:09.681Z,100424.28
2023-05-21T11:25:16.461Z,100425.19
2023-05-21T11:26:21.807Z,100428.25
2023-05-21T11:27:37.781Z,100437.72
2023-05-21T11:28:42.937Z,100447.91
2023-05-21T11:29:50.454Z,100448.50
2023-05-21T11:31:25.442Z,100454.59
2023-05-21T11:32:32.475Z,100461.84
2023-05-21T11:33:37.050Z,100472.06
2023-05-21T11:34:44.564Z,100470.69
2023-05-21T11:36:04.815Z,100485.91
2023-05-21T11:37:31.254Z,100491.44
2023-05-21T11:38:37.238Z,100494.19
2023-05-21T11:39:41.903Z,100493.94
2023-05-21T11:40:55.817Z,100495.03
2023-05-21T11:42:03.817Z,100511.91
2023-05-21T11:43:10.427Z,100534.84
2023-05-21T11:44:15.088Z,100523.91
2023-05-21T11:45:23.877Z,100530.38
2023-05-21T11:46:28.863Z,100526.28
2023-05-21T11:47:35.539Z,100546.78
2023-05-21T11:48:41.660Z,100553.25
2023-05-21T11:49:46.934Z,100548.16
2023-05-21T11:50:52.818Z,100558.16
2023-05-21T11:51:57.662Z,100562.03
2023-05-21T11:53:03.622Z,100574.47
2023-05-21T11:54:09.827Z,100582.78
2023-05-21T11:55:16.687Z,100586.97
2023-05-21T11:56:21.400Z,100592.00
2023-05-21T11:57:33.131Z,100599.97
2023-05-21T11:58:38.954Z,100605.22
2023-05-21T11:59:45.074Z,100612.38
2023-05-21T12:00:55.860Z,100627.53
2023-05-21T12:02:00.630Z,100625.63
2023-05-21T12:03:08.200Z,100625.31
2023-05-21T12:04:13.354Z,100630.81
2023-05-21T12:05:20.026Z,100640.41
2023-05-21T12:06:29.253Z,100639.84
2023-05-21T12:07:35.214Z,100630.25
2023-05-21T12:08:40.033Z,100636.75
2023-05-21T12:09:46.796Z,100640.31
2023-05-21T12:10:51.451Z,100642.72
2023-05-21T12:11:57.341Z,100636.94
2023-05-21T12:13:02.953Z,100642.97
2023-05-21T12:14:11.991Z,100644.34
2023-05-21T12:15:19.988Z,100649.28
2023-05-21T12:16:26.186Z,100655.56
2023-05-21T12:17:32.636Z,100653.94
2023-05-21T12:18:38.713Z,100658.78
2023-05-21T12:19:44.720Z,100658.22
2023-05-21T12:20:49.420Z,100653.78
2023-05-21T12:21:55.220Z,100664.72
2023-05-21T12:23:01.929Z,100663.06
2023-05-21T12:24:06.728Z,100669.91
2023-05-21T12:25:13.503Z,100666.34
2023-05-21T12:26:18.544Z,100676.22
2023-05-21T12:27:25.399Z,100672.66
2023-05-21T12:28:30.444Z,100678.38
2023-05-21T12:29:36.914Z,100690.72
2023-05-21T12:30:42.818Z,100689.59
2023-05-21T12:31:52.477Z,100697.00
2023-05-21T12:33:05.478Z,100690.13
2023-05-21T12:34:10.281Z,100700.53
2023-05-21T12:35:25.380Z,100696.41
2023-05-21T12:36:35.140Z,100699.97
2023-05-21T12:37:41.096Z,100704.66
2023-05-21T12:38:48.033Z,100711.81
2023-05-21T12:39:54.758Z,100718.38
2023-05-21T12:40:59.704Z,100715.06
2023-05-21T12:42:06.224Z,100721.66
2023-05-21T12:43:10.913Z,100725.47
2023-05-21T12:44:16.805Z,100730.94
2023-05-21T12:45:23.461Z,100734.75
2023-05-21T12:46:29.448Z,100740.78
2023-05-21T12:47:37.259Z,100730.25
2023-05-21T12:48:42.365Z,100728.88